createdAt,value
2022-08-18T00:01:14.775Z,21.00
2022-08-18T00:03:57.324Z,21.00
2022-08-18T00:06:29.420Z,21.00
2022-08-18T00:09:05.198Z,20.80
2022-08-18T00:11:41.533Z,20.80
2022-08-18T00:14:22.288Z,20.80
2022-08-18T00:16:53.648Z,20.70
2022-08-18T00:19:47.066Z,20.80
2022-08-18T00:22:15.310Z,20.80
2022-08-18T00:24:49.455Z,20.80
2022-08-18T00:27:21.615Z,20.70
2022-08-18T00:29:49.637Z,20.60
2022-08-18T00:32:40.451Z,20.40
2022-08-18T00:35:14.475Z,20.40
2022-08-18T00:37:42.713Z,20.30
2022-08-18T00:40:17.271Z,20.30
2022-08-18T00:42:50.557Z,20.10
2022-08-18T00:45:25.320Z,20.10
2022-08-18T00:47:54.012Z,20.20
2022-08-18T00:50:56.156Z,20.20
2022-08-18T00:53:32.118Z,20.20
2022-08-18T00:56:05.823Z,20.10
2022-08-18T00:58:59.207Z,20.10
2022-08-18T01:01:31.188Z,20.10
2022-08-18T01:04:13.459Z,20.20
2022-08-18T01:06:47.670Z,20.20
2022-08-18T01:09:17.479Z,20.30
2022-08-18T01:11:44.762Z,20.20
2022-08-18T01:14:15.972Z,20.20
2022-08-18T01:17:03.784Z,20.20
2022-08-18T01:19:50.115Z,20.20
2022-08-18T01:22:30.411Z,20.10
2022-08-18T01:25:19.184Z,20.10
2022-08-18T01:27:46.614Z,20.30
2022-08-18T01:30:18.260Z,20.30
2022-08-18T01:32:48.377Z,20.20
2022-08-18T01:35:18.178Z,20.20
2022-08-18T01:37:45.140Z,20.10
2022-08-18T01:41:23.543Z,20.00
2022-08-18T01:43:05.346Z,19.80
2022-08-18T01:45:33.534Z,19.80
2022-08-18T01:48:01.294Z,19.50
2022-08-18T01:50:29.513Z,19.60
2022-08-18T01:52:56.618Z,19.60
2022-08-18T01:55:25.004Z,19.70
2022-08-18T01:57:52.247Z,19.80
2022-08-18T02:00:20.163Z,19.70
2022-08-18T02:02:58.218Z,19.70
2022-08-18T02:05:41.362Z,19.80
2022-08-18T02:08:12.398Z,19.70
2022-08-18T02:10:40.226Z,19.70
2022-08-18T02:13:07.254Z,19.80
2022-08-18T02:15:34.502Z,19.80
2022-08-18T02:18:02.017Z,19.70
2022-08-18T02:20:29.344Z,19.70
2022-08-18T02:22:58.572Z,19.70
2022-08-18T02:25:25.763Z,19.60
2022-08-18T02:27:53.339Z,19.50
2022-08-18T02:30:20.664Z,19.50
2022-08-18T02:32:47.823Z,19.50
2022-08-18T02:35:14.880Z,19.50
2022-08-18T02:37:43.118Z,19.50
2022-08-18T02:40:15.182Z,19.60
2022-08-18T02:42:43.556Z,19.70
2022-08-18T02:45:11.863Z,19.50
2022-08-18T02:47:39.783Z,19.40
2022-08-18T02:50:08.100Z,19.40
2022-08-18T02:52:38.399Z,19.30
2022-08-18T02:55:08.231Z,19.30
2022-08-18T02:57:35.492Z,19.30
2022-08-18T03:00:02.885Z,19.30
2022-08-18T03:02:29.831Z,19.30
2022-08-18T03:04:56.936Z,19.30
2022-08-18T03:07:25.528Z,19.30
2022-08-18T03:09:52.520Z,19.30
2022-08-18T03:12:19.482Z,19.30
2022-08-18T03:14:46.780Z,19.30
2022-08-18T03:17:14.976Z,19.20
2022-08-18T03:19:44.972Z,19.30
2022-08-18T03:22:27.296Z,19.40
2022-08-18T03:24:56.976Z,19.40
2022-08-18T03:27:24.480Z,19.30
2022-08-18T03:29:51.489Z,19.30
2022-08-18T03:32:18.898Z,19.30
2022-08-18T03:34:46.084Z,19.30
2022-08-18T03:37:16.130Z,19.30
2022-08-18T03:39:43.337Z,19.30
2022-08-18T03:42:10.470Z,19.30
2022-08-18T03:44:37.757Z,19.30
2022-08-18T03:47:09.773Z,19.30
2022-08-18T03:49:38.669Z,19.40
2022-08-18T03:52:09.677Z,19.30
2022-08-18T03:54:38.916Z,19.30
2022-08-18T03:57:09.559Z,19.40
2022-08-18T03:59:36.756Z,19.40
2022-08-18T04:02:05.165Z,19.50
2022-08-18T04:04:32.380Z,19.40
2022-08-18T04:07:14.318Z,19.30
2022-08-18T04:09:42.874Z,19.30
2022-08-18T04:12:16.565Z,19.30
2022-08-18T04:14:48.464Z,19.40
2022-08-18T04:17:25.122Z,19.20
2022-08-18T04:19:54.495Z,19.10
2022-08-18T04:22:22.996Z,19.10
2022-08-18T04:24:50.821Z,19.20
2022-08-18T04:27:19.132Z,19.10
2022-08-18T04:29:46.535Z,19.20
2022-08-18T04:32:13.560Z,19.40
2022-08-18T04:34:40.656Z,19.40
2022-08-18T04:37:09.674Z,19.30
2022-08-18T04:39:37.579Z,19.30
2022-08-18T04:42:06.036Z,19.20
2022-08-18T04:44:34.421Z,19.20
2022-08-18T04:47:02.324Z,19.20
2022-08-18T04:49:30.377Z,19.10
2022-08-18T04:52:27.064Z,19.10
2022-08-18T04:55:05.024Z,19.20
2022-08-18T04:57:34.893Z,19.30
2022-08-18T05:00:05.354Z,19.30
2022-08-18T05:02:33.222Z,19.30
2022-08-18T05:05:03.556Z,19.20
2022-08-18T05:07:30.784Z,19.20
2022-08-18T05:09:57.714Z,19.20
2022-08-18T05:12:25.822Z,19.30
2022-08-18T05:14:54.256Z,19.20
2022-08-18T05:17:21.300Z,19.30
2022-08-18T05:19:49.818Z,19.20
2022-08-18T05:22:22.727Z,19.10
2022-08-18T05:24:55.877Z,19.10
2022-08-18T05:27:22.930Z,19.20
2022-08-18T05:29:51.599Z,19.30
2022-08-18T05:32:30.480Z,19.20
2022-08-18T05:35:15.637Z,19.20
2022-08-18T05:38:13.858Z,19.20
2022-08-18T05:40:41.865Z,19.30
2022-08-18T05:43:10.517Z,19.30
2022-08-18T05:45:39.791Z,19.30
2022-08-18T05:48:06.752Z,19.30
2022-08-18T05:50:37.757Z,19.20
2022-08-18T05:53:15.204Z,19.30
2022-08-18T05:56:24.847Z,19.30
2022-08-18T05:58:55.764Z,19.30
2022-08-18T06:01:29.649Z,19.30
2022-08-18T06:04:34.744Z,19.40
2022-08-18T06:07:07.908Z,19.40
2022-08-18T06:09:51.041Z,19.60
2022-08-18T06:12:37.841Z,19.70
2022-08-18T06:15:33.104Z,19.80
2022-08-18T06:18:33.575Z,19.80
2022-08-18T06:21:23.699Z,19.90
2022-08-18T06:24:27.586Z,19.80
2022-08-18T06:27:58.733Z,19.90
2022-08-18T06:31:00.652Z,19.90
2022-08-18T06:34:01.194Z,19.90
2022-08-18T06:36:40.443Z,19.90
2022-08-18T06:39:34.712Z,20.00
2022-08-18T06:42:05.571Z,20.00
2022-08-18T06:44:42.599Z,20.00
2022-08-18T06:47:32.214Z,19.90
2022-08-18T06:50:09.724Z,19.90
2022-08-18T06:52:40.379Z,19.90
2022-08-18T06:55:14.009Z,20.00
2022-08-18T06:57:57.391Z,20.00
2022-08-18T07:00:32.897Z,20.00
2022-08-18T07:03:11.677Z,20.10
2022-08-18T07:06:08.767Z,20.30
2022-08-18T07:08:42.430Z,20.50
2022-08-18T07:11:20.452Z,20.60
2022-08-18T07:14:09.569Z,20.60
2022-08-18T07:16:57.597Z,20.70
2022-08-18T07:19:30.193Z,20.70
2022-08-18T07:22:13.131Z,20.70
2022-08-18T07:24:49.949Z,20.60
2022-08-18T07:27:21.001Z,20.70
2022-08-18T07:30:15.477Z,20.70
2022-08-18T07:33:16.924Z,20.90
2022-08-18T07:35:49.951Z,21.10
2022-08-18T07:38:42.822Z,20.70
2022-08-18T07:41:27.246Z,20.90
2022-08-18T07:44:13.968Z,20.80
2022-08-18T07:47:06.365Z,20.80
2022-08-18T07:49:36.592Z,20.80
2022-08-18T07:52:43.755Z,20.90
2022-08-18T07:55:32.460Z,20.70
2022-08-18T07:58:15.851Z,20.60
2022-08-18T08:00:59.256Z,20.60
2022-08-18T08:03:59.693Z,20.60
2022-08-18T08:07:22.988Z,20.60
2022-08-18T08:10:18.963Z,20.60
2022-08-18T08:13:09.419Z,20.70
2022-08-18T08:16:03.076Z,20.70
2022-08-18T08:18:57.419Z,20.70
2022-08-18T08:21:29.271Z,20.70
2022-08-18T08:24:21.118Z,20.70
2022-08-18T08:27:23.597Z,20.70
2022-08-18T08:30:19.500Z,20.80
2022-08-18T08:33:07.418Z,20.70
2022-08-18T08:35:52.872Z,20.80
2022-08-18T08:38:43.070Z,20.80
2022-08-18T08:41:20.258Z,20.60
2022-08-18T08:44:17.969Z,20.60
2022-08-18T08:46:57.901Z,20.50
2022-08-18T08:49:41.745Z,20.60
2022-08-18T08:52:20.193Z,20.60
2022-08-18T08:54:54.410Z,20.70
2022-08-18T08:57:27.676Z,20.70
2022-08-18T08:59:56.798Z,20.90
2022-08-18T09:03:01.036Z,21.00
2022-08-18T09:05:56.771Z,21.10
2022-08-18T09:08:45.985Z,21.30
2022-08-18T09:11:56.873Z,21.30
2022-08-18T09:14:51.682Z,21.30
2022-08-18T09:18:18.391Z,21.30
2022-08-18T09:21:11.283Z,21.60
2022-08-18T09:23:46.964Z,21.80
2022-08-18T09:26:42.339Z,22.20
2022-08-18T09:29:46.354Z,22.50
2022-08-18T09:32:19.970Z,22.60
2022-08-18T09:35:15.077Z,22.70
2022-08-18T09:38:12.768Z,22.90
2022-08-18T09:41:32.101Z,23.00
2022-08-18T09:44:21.458Z,22.90
2022-08-18T09:46:56.273Z,22.40
2022-08-18T09:49:26.781Z,22.20
2022-08-18T09:51:59.416Z,21.80
2022-08-18T09:54:34.259Z,21.60
2022-08-18T09:57:04.335Z,21.50
2022-08-18T09:59:38.198Z,21.40
2022-08-18T10:02:33.829Z,21.30
2022-08-18T10:05:15.979Z,21.30
2022-08-18T10:08:08.544Z,21.20
2022-08-18T10:11:17.102Z,21.20
2022-08-18T10:14:14.976Z,21.40
2022-08-18T10:17:24.251Z,21.30
2022-08-18T10:20:25.870Z,21.10
2022-08-18T10:22:56.573Z,21.00
2022-08-18T10:25:46.566Z,21.00
2022-08-18T10:28:55.494Z,21.00
2022-08-18T10:31:27.295Z,21.00
2022-08-18T10:34:16.457Z,20.90
2022-08-18T10:36:52.969Z,21.00
2022-08-18T10:39:44.692Z,21.20
2022-08-18T10:42:33.798Z,21.30
2022-08-18T10:46:21.138Z,21.60
2022-08-18T10:48:40.106Z,21.90
2022-08-18T10:51:24.980Z,22.10
2022-08-18T10:54:21.481Z,22.20
2022-08-18T10:56:59.576Z,22.40
2022-08-18T10:59:50.470Z,22.60
2022-08-18T11:02:44.959Z,22.80
2022-08-18T11:05:24.457Z,22.90
2022-08-18T11:08:00.583Z,22.80
2022-08-18T11:11:06.553Z,22.70
2022-08-18T11:13:51.035Z,22.60
2022-08-18T11:16:48.628Z,22.80
2022-08-18T11:19:18.804Z,22.80
2022-08-18T11:21:52.840Z,22.90
2022-08-18T11:24:32.445Z,23.10
2022-08-18T11:27:25.162Z,23.40
2022-08-18T11:29:55.317Z,23.50
2022-08-18T11:32:35.403Z,23.40
2022-08-18T11:35:18.527Z,23.40
2022-08-18T11:37:56.212Z,23.40
2022-08-18T11:43:41.045Z,23.50
2022-08-18T11:46:31.557Z,23.60
2022-08-18T11:49:01.877Z,23.60
2022-08-18T11:51:34.405Z,23.50
2022-08-18T11:54:13.736Z,23.70
2022-08-18T11:56:40.710Z,23.50
2022-08-18T11:59:52.610Z,23.50
2022-08-18T12:02:22.780Z,23.50
2022-08-18T12:05:10.455Z,23.60
2022-08-18T12:07:49.678Z,24.00
2022-08-18T12:10:29.155Z,24.10
2022-08-18T12:13:00.711Z,24.20
2022-08-18T12:15:46.429Z,24.10
2022-08-18T12:18:26.626Z,24.20
2022-08-18T12:21:06.075Z,24.50
2022-08-18T12:23:48.836Z,25.00
2022-08-18T12:29:08.838Z,25.30
2022-08-18T12:31:42.620Z,25.10
2022-08-18T12:34:17.910Z,25.30
2022-08-18T12:36:56.555Z,25.20
2022-08-18T12:39:24.455Z,25.10
2022-08-18T12:41:51.471Z,25.30
2022-08-18T12:44:19.240Z,25.50
2022-08-18T12:46:47.929Z,25.50
2022-08-18T12:49:25.792Z,25.50
2022-08-18T12:51:57.009Z,25.50
2022-08-18T12:54:25.567Z,25.60
2022-08-18T12:56:56.189Z,25.70
2022-08-18T12:59:24.603Z,25.80
2022-08-18T13:04:39.708Z,26.00
2022-08-18T13:07:08.077Z,26.00
2022-08-18T13:09:52.682Z,25.80
2022-08-18T13:12:22.566Z,25.60
2022-08-18T13:14:54.790Z,25.40
2022-08-18T13:17:32.893Z,25.30
2022-08-18T13:20:14.920Z,25.40
2022-08-18T13:22:43.869Z,25.30
2022-08-18T13:25:28.654Z,25.70
2022-08-18T13:28:02.053Z,26.10
2022-08-18T13:30:31.276Z,26.10
2022-08-18T13:33:05.211Z,26.10
2022-08-18T13:35:38.099Z,26.40
2022-08-18T13:38:17.064Z,26.40
2022-08-18T13:40:50.755Z,26.30
2022-08-18T13:43:23.463Z,26.30
2022-08-18T13:45:53.385Z,26.00
2022-08-18T13:48:24.057Z,26.10
2022-08-18T13:50:56.397Z,26.30
2022-08-18T13:53:26.287Z,26.30
2022-08-18T13:55:58.607Z,26.30
2022-08-18T13:58:29.453Z,26.30
2022-08-18T14:01:42.617Z,26.10
2022-08-18T14:03:51.166Z,26.20
2022-08-18T14:06:23.829Z,26.20
2022-08-18T14:08:52.705Z,26.50
2022-08-18T14:11:27.382Z,26.20
2022-08-18T14:13:55.906Z,25.90
2022-08-18T14:16:27.377Z,25.80
2022-08-18T14:19:13.906Z,25.90
2022-08-18T14:22:06.261Z,26.10
2022-08-18T14:24:53.478Z,26.10
2022-08-18T14:27:35.135Z,25.80
2022-08-18T14:30:10.545Z,26.00
2022-08-18T14:32:48.988Z,26.10
2022-08-18T14:36:04.664Z,25.70
2022-08-18T14:38:09.753Z,25.70
2022-08-18T14:40:41.753Z,25.80
2022-08-18T14:43:16.087Z,25.90
2022-08-18T14:45:48.900Z,25.80
2022-08-18T14:48:27.331Z,25.80
2022-08-18T14:50:56.619Z,25.80
2022-08-18T14:53:29.800Z,25.80
2022-08-18T14:55:59.239Z,25.80
2022-08-18T14:58:29.795Z,25.80
2022-08-18T15:01:08.283Z,25.80
2022-08-18T15:03:36.769Z,25.90
2022-08-18T15:06:07.082Z,26.00
2022-08-18T15:08:37.321Z,26.00
2022-08-18T15:11:11.572Z,25.90
2022-08-18T15:13:43.591Z,26.00
2022-08-18T15:16:14.793Z,26.10
2022-08-18T15:18:44.750Z,25.90
2022-08-18T15:21:38.444Z,25.80
2022-08-18T15:24:26.177Z,25.80
2022-08-18T15:26:57.702Z,25.80
2022-08-18T15:29:28.956Z,25.90
2022-08-18T15:32:02.258Z,25.70
2022-08-18T15:34:46.702Z,25.60
2022-08-18T15:37:19.504Z,25.70
2022-08-18T15:39:51.957Z,25.80
2022-08-18T15:42:23.806Z,25.70
2022-08-18T15:44:53.509Z,25.60
2022-08-18T15:47:22.275Z,25.50
2022-08-18T15:49:52.689Z,25.50
2022-08-18T15:52:24.532Z,25.50
2022-08-18T15:54:57.053Z,25.50
2022-08-18T15:57:39.351Z,25.50
2022-08-18T16:00:20.401Z,25.60
2022-08-18T16:03:01.738Z,25.60
2022-08-18T16:05:36.866Z,25.50
2022-08-18T16:08:06.674Z,25.40
2022-08-18T16:10:37.045Z,25.40
2022-08-18T16:13:07.250Z,25.50
2022-08-18T16:15:39.025Z,25.50
2022-08-18T16:18:08.510Z,25.40
2022-08-18T16:20:37.398Z,25.40
2022-08-18T16:23:05.459Z,25.50
2022-08-18T16:25:32.751Z,25.30
2022-08-18T16:28:01.081Z,25.40
2022-08-18T16:30:29.563Z,25.40
2022-08-18T16:33:02.944Z,25.40
2022-08-18T16:35:31.866Z,25.30
2022-08-18T16:38:05.725Z,25.30
2022-08-18T16:40:32.867Z,25.30
2022-08-18T16:43:00.886Z,25.30
2022-08-18T16:45:29.750Z,25.30
2022-08-18T16:47:56.837Z,25.30
2022-08-18T16:50:25.324Z,25.30
2022-08-18T16:52:52.692Z,25.20
2022-08-18T16:55:21.148Z,25.20
2022-08-18T16:58:06.431Z,25.20
2022-08-18T17:00:54.667Z,25.20
2022-08-18T17:03:42.462Z,25.20
2022-08-18T17:06:15.595Z,25.20
2022-08-18T17:08:43.608Z,25.20
2022-08-18T17:11:17.142Z,25.20
2022-08-18T17:13:48.090Z,25.10
2022-08-18T17:16:16.755Z,25.00
2022-08-18T17:18:43.869Z,25.00
2022-08-18T17:21:16.315Z,24.90
2022-08-18T17:23:43.846Z,24.90
2022-08-18T17:26:41.241Z,24.90
2022-08-18T17:29:35.063Z,24.80
2022-08-18T17:32:49.529Z,24.80
2022-08-18T17:35:29.271Z,24.80
2022-08-18T17:38:07.323Z,24.70
2022-08-18T17:40:54.419Z,24.70
2022-08-18T17:46:28.810Z,24.60
2022-08-18T17:49:09.470Z,24.60
2022-08-18T17:51:48.895Z,24.60
2022-08-18T17:54:42.181Z,24.40
2022-08-18T17:57:32.387Z,24.50
2022-08-18T18:00:11.971Z,24.40
2022-08-18T18:02:42.021Z,24.40
2022-08-18T18:05:13.205Z,24.30
2022-08-18T18:07:52.123Z,24.20
2022-08-18T18:10:51.099Z,24.30
2022-08-18T18:13:23.866Z,24.10
2022-08-18T18:16:01.117Z,24.00
2022-08-18T18:18:44.987Z,24.00
2022-08-18T18:21:14.905Z,24.00
2022-08-18T18:23:46.807Z,23.90
2022-08-18T18:26:38.194Z,23.80
2022-08-18T18:29:33.401Z,23.80
2022-08-18T18:32:24.327Z,23.70
2022-08-18T18:35:17.230Z,23.60
2022-08-18T18:38:07.467Z,23.70
2022-08-18T18:40:38.582Z,23.80
2022-08-18T18:43:39.411Z,23.70
2022-08-18T18:46:18.628Z,23.60
2022-08-18T18:49:37.163Z,23.50
2022-08-18T18:52:42.263Z,23.40
2022-08-18T18:55:27.087Z,23.20
2022-08-18T18:58:52.177Z,23.00
2022-08-18T19:01:47.870Z,22.90
2022-08-18T19:04:25.634Z,22.70
2022-08-18T19:07:08.470Z,22.40
2022-08-18T19:09:50.412Z,22.40
2022-08-18T19:12:48.120Z,22.30
2022-08-18T19:15:17.411Z,22.30
2022-08-18T19:17:51.514Z,22.70
2022-08-18T19:20:32.621Z,22.80
2022-08-18T19:23:34.149Z,22.80
2022-08-18T19:26:12.892Z,22.90
2022-08-18T19:29:12.667Z,22.90
2022-08-18T19:31:41.215Z,22.90
2022-08-18T19:34:16.887Z,22.90
2022-08-18T19:36:47.483Z,22.80
2022-08-18T19:39:26.258Z,22.60
2022-08-18T19:42:01.987Z,22.70
2022-08-18T19:45:17.590Z,22.60
2022-08-18T19:47:56.416Z,22.60
2022-08-18T19:50:48.871Z,22.50
2022-08-18T19:53:29.132Z,22.30
2022-08-18T19:56:10.948Z,22.50
2022-08-18T19:59:18.028Z,22.50
2022-08-18T20:02:35.557Z,22.40
2022-08-18T20:05:40.257Z,22.20
2022-08-18T20:08:43.731Z,22.20
2022-08-18T20:11:48.860Z,22.10
2022-08-18T20:14:20.895Z,21.90
2022-08-18T20:17:08.960Z,21.70
2022-08-18T20:20:02.382Z,21.50
2022-08-18T20:22:48.051Z,21.40
2022-08-18T20:25:17.406Z,21.20
2022-08-18T20:27:50.002Z,21.10
2022-08-18T20:30:20.036Z,21.10
2022-08-18T20:33:17.827Z,21.00
2022-08-18T20:36:08.935Z,20.80
2022-08-18T20:38:43.262Z,20.70
2022-08-18T20:41:26.475Z,20.70
2022-08-18T20:44:29.215Z,20.70
2022-08-18T20:47:41.990Z,20.70
2022-08-18T20:50:51.139Z,20.90
2022-08-18T20:53:54.906Z,20.90
2022-08-18T20:56:53.540Z,20.70
2022-08-18T20:59:28.894Z,20.60
2022-08-18T21:02:03.746Z,20.50
2022-08-18T21:04:52.946Z,20.50
2022-08-18T21:07:36.033Z,20.40
2022-08-18T21:10:23.523Z,20.20
2022-08-18T21:12:55.241Z,20.30
2022-08-18T21:15:28.458Z,20.20
2022-08-18T21:18:09.402Z,20.10
2022-08-18T21:20:36.591Z,20.00
2022-08-18T21:23:09.592Z,20.10
2022-08-18T21:25:48.793Z,20.00
2022-08-18T21:28:17.524Z,20.10
2022-08-18T21:31:43.009Z,20.10
2022-08-18T21:33:52.722Z,20.00
2022-08-18T21:36:23.362Z,20.20
2022-08-18T21:38:58.621Z,20.20
2022-08-18T21:41:40.559Z,20.30
2022-08-18T21:44:20.036Z,20.30
2022-08-18T21:46:47.815Z,20.20
2022-08-18T21:49:26.224Z,20.20
2022-08-18T21:51:53.631Z,20.20
2022-08-18T21:54:25.188Z,20.30
2022-08-18T21:57:23.609Z,20.10
2022-08-18T22:00:25.954Z,20.30
2022-08-18T22:03:15.219Z,20.40
2022-08-18T22:05:55.095Z,20.20
2022-08-18T22:08:33.627Z,20.30
2022-08-18T22:12:00.773Z,20.30
2022-08-18T22:14:54.423Z,20.40
2022-08-18T22:18:10.415Z,20.20
2022-08-18T22:20:40.391Z,20.10
2022-08-18T22:23:41.704Z,20.00
2022-08-18T22:26:20.490Z,19.90
2022-08-18T22:29:02.164Z,19.80
2022-08-18T22:31:40.310Z,19.90
2022-08-18T22:34:17.548Z,19.90
2022-08-18T22:37:08.287Z,19.90
2022-08-18T22:39:46.107Z,19.80
2022-08-18T22:42:15.852Z,19.90
2022-08-18T22:44:44.331Z,20.00
2022-08-18T22:47:11.984Z,19.90
2022-08-18T22:49:39.660Z,19.90
2022-08-18T22:52:37.978Z,20.10
2022-08-18T22:55:09.769Z,20.20
2022-08-18T22:57:39.849Z,20.10
2022-08-18T23:00:15.655Z,20.20
2022-08-18T23:02:43.558Z,20.30
2022-08-18T23:05:11.148Z,20.40
2022-08-18T23:07:38.226Z,20.40
2022-08-18T23:10:13.923Z,20.50
2022-08-18T23:12:47.028Z,20.50
2022-08-18T23:15:16.893Z,20.60
2022-08-18T23:17:44.210Z,20.60
2022-08-18T23:20:17.543Z,20.70
2022-08-18T23:22:45.507Z,20.90
2022-08-18T23:25:13.439Z,21.00
2022-08-18T23:27:41.293Z,21.00
2022-08-18T23:30:09.371Z,21.00
2022-08-18T23:32:36.478Z,20.90
2022-08-18T23:35:04.389Z,20.90
2022-08-18T23:37:31.642Z,20.90
2022-08-18T23:39:59.163Z,21.00
2022-08-18T23:42:26.444Z,21.00
2022-08-18T23:44:53.428Z,20.90
2022-08-18T23:47:20.811Z,20.80
2022-08-18T23:49:48.448Z,20.70
2022-08-18T23:52:15.636Z,20.60
2022-08-18T23:54:42.641Z,20.60
2022-08-18T23:57:09.662Z,20.60
2022-08-18T23:59:36.897Z,20.50
